Time;durP1;ratioP1;P1;durP2;ratioP2;P2;SDS_P1;SDS_P2;PMS_P1;PMS_P2;Temp;Humidity;BMP_temperature;BMP_pressure;BME280_temperature;BME280_humidity;BME280_pressure;Samples;Min_cycle;Max_cycle;Signal;HPM_P1;HPM_P2
2023/02/20 08:55:37;;;;;;;;;;;;;;;;;;5476222;23;19926;-88
2023/02/20 08:58:03;;;;;;;;;;;;;;;;;;4979350;28;20246;-88
2023/02/20 09:26:17;;;;;;;;;;;;;;;;;;4955709;29;19926;-85
2023/02/20 09:28:42;;;;;;;;;;;;;;;;;;4957795;29;20277;-84
2023/02/20 09:31:08;;;;;;;;;;;;;;;;;;4959030;29;19922;-85
2023/02/20 09:33:33;;;;;;;;;;;;;;;;;;4958828;28;20001;-85
2023/02/20 09:35:58;;;;;;;;;;;;;;;;;;4958684;28;19921;-84
2023/02/20 09:38:26;;;;;;;;;;;;;;;;;;4958957;28;20005;-82
2023/02/20 09:40:53;;;;;;;;;;;;;;;;;;4958637;28;19921;-83
2023/02/20 09:43:28;;;;;;;;;;;;;;;;;;4958410;28;19914;-83
2023/02/20 09:45:58;;;;;;;;;;;;;;;;;;4959187;28;19921;-83
2023/02/20 09:48:49;;;;;;;;;;;;;;;;;;4958607;28;19910;-83
2023/02/20 09:51:16;;;;;;;;;;;;;;;;;;4950525;28;19949;-85
2023/02/20 09:53:44;;;;;;;;;;;;;;;;;;4958262;28;19914;-83
2023/02/20 09:56:13;;;;;;;;;;;;;;;;;;4958730;28;19921;-84
2023/02/20 09:58:44;;;;;;;;;;;;;;;;;;4957442;29;19910;-83
2023/02/20 10:01:14;;;;;;;;;;;;;;;;;;4958542;28;20016;-83
2023/02/20 10:03:42;;;;;;;;;;;;;;;;;;4958061;28;19915;-82
2023/02/20 10:06:14;;;;;;;;;;;;;;;;;;4957082;28;20101;-82
2023/02/20 10:08:39;;;;;;;;;;;;;;;;;;4957410;28;19910;-83
2023/02/20 10:11:06;;;;;;;;;;;;;;;;;;4958151;28;19914;-83
2023/02/20 10:13:41;;;;;;;;;;;;;;;;;;4958091;28;19910;-83
2023/02/20 10:16:23;;;;;;;;;;;;;;;;;;4958113;28;19918;-83
2023/02/20 12:33:37;;;;;;;;;;;;;;;;;;4983129;23;20020;-90
2023/02/20 12:36:12;;;;;;;;;;;;;;;;;;4980980;28;19918;-90
2023/02/20 12:38:40;;;;;;;;;;;;;;;;;;4983876;28;20024;-90
2023/02/20 12:41:24;;;;;;;;;;;;;;;;;;4983467;28;19977;-92
2023/02/20 12:43:56;;;;;;;;;;;;;;;;;;4982484;28;19921;-92
2023/02/20 12:46:31;;;;;;;;;;;;;;;;;;4980853;28;19914;-90
2023/02/20 17:01:21;;;;;;;;;;;;;;;;;;5236992;23;19967;-91
2023/02/20 17:03:47;;;;;;;;;;;;;;;;;;4981424;28;19924;-95
2023/02/20 17:06:16;;;;;;;;;;;;;;;;;;4975262;28;19914;-92
2023/02/20 17:08:42;;;;;;;;;;;;;;;;;;4976415;28;20361;-87
2023/02/20 17:11:07;;;;;;;;;;;;;;;;;;4974850;28;19914;-86
2023/02/20 17:13:32;;;;;;;;;;;;;;;;;;4975090;28;19920;-87
2023/02/20 17:15:57;;;;;;;;;;;;;;;;;;4973576;28;19914;-85
2023/02/20 17:18:23;;;;;;;;;;;;;;;;;;4978047;28;20328;-85
2023/02/20 17:20:48;;;;;;;;;;;;;;;;;;4978511;28;20416;-86
2023/02/20 17:23:13;;;;;;;;;;;;;;;;;;4978507;28;19921;-87
2023/02/20 17:25:39;;;;;;;;;;;;;;;;;;4978791;28;19951;-87
2023/02/20 17:28:04;;;;;;;;;;;;;;;;;;4978473;28;19960;-91
2023/02/20 17:30:29;;;;;;;;;;;;;;;;;;4983081;28;20436;-86
2023/02/20 17:32:55;;;;;;;;;;;;;;;;;;4979942;28;19921;-86
2023/02/20 17:35:20;;;;;;;;;;;;;;;;;;4969226;28;20288;-91
2023/02/20 17:37:45;;;;;;;;;;;;;;;;;;4965016;28;19988;-86
2023/02/20 17:40:11;;;;;;;;;;;;;;;;;;4977062;28;20284;-88
2023/02/20 17:42:36;;;;;;;;;;;;;;;;;;4967348;28;20005;-89
2023/02/20 17:45:02;;;;;;;;;;;;;;;;;;4958999;28;19919;-85
2023/02/20 17:47:27;;;;;;;;;;;;;;;;;;4958934;28;19914;-88
2023/02/20 17:49:53;;;;;;;;;;;;;;;;;;4974860;28;19921;-88
2023/02/20 17:52:20;;;;;;;;;;;;;;;;;;4957519;28;19914;-91
2023/02/20 17:54:46;;;;;;;;;;;;;;;;;;4958615;28;19962;-87
2023/02/20 17:57:12;;;;;;;;;;;;;;;;;;4958483;28;19915;-85
2023/02/20 17:59:38;;;;;;;;;;;;;;;;;;4958442;28;20349;-93
2023/02/20 18:02:04;;;;;;;;;;;;;;;;;;4958401;28;20005;-91
2023/02/20 18:04:30;;;;;;;;;;;;;;;;;;4960040;28;19968;-91
2023/02/20 18:06:55;;;;;;;;;;;;;;;;;;4958892;28;19914;-87
2023/02/20 18:09:20;;;;;;;;;;;;;;;;;;4967322;28;19913;-90
2023/02/20 18:11:46;;;;;;;;;;;;;;;;;;4978272;28;19922;-90
2023/02/20 18:14:11;;;;;;;;;;;;;;;;;;4976612;28;19962;-93
2023/02/20 18:16:38;;;;;;;;;;;;;;;;;;4977764;28;19914;-94
2023/02/20 18:19:04;;;;;;;;;;;;;;;;;;4976323;28;20332;-93
2023/02/20 18:21:30;;;;;;;;;;;;;;;;;;4976897;28;19914;-88
2023/02/20 18:23:55;;;;;;;;;;;;;;;;;;4976590;28;19918;-88
2023/02/20 18:26:21;;;;;;;;;;;;;;;;;;4979345;28;20357;-94
2023/02/20 18:28:46;;;;;;;;;;;;;;;;;;4978507;28;19964;-87
2023/02/20 18:31:12;;;;;;;;;;;;;;;;;;4978227;28;20261;-92
2023/02/20 18:33:38;;;;;;;;;;;;;;;;;;4979335;28;19921;-90
2023/02/20 18:36:04;;;;;;;;;;;;;;;;;;4980892;28;20024;-93
2023/02/20 18:38:29;;;;;;;;;;;;;;;;;;4977716;28;19914;-88
2023/02/20 18:40:55;;;;;;;;;;;;;;;;;;4977406;28;20008;-89
2023/02/20 18:43:20;;;;;;;;;;;;;;;;;;4977290;28;20299;-94
2023/02/20 18:45:45;;;;;;;;;;;;;;;;;;4976979;28;19913;-89
2023/02/20 18:48:11;;;;;;;;;;;;;;;;;;4977007;28;19914;-90
2023/02/20 18:50:36;;;;;;;;;;;;;;;;;;4976019;28;19980;-89
2023/02/20 18:53:02;;;;;;;;;;;;;;;;;;4976027;28;20360;-89
2023/02/20 18:55:27;;;;;;;;;;;;;;;;;;4975743;28;19914;-91
2023/02/20 18:57:53;;;;;;;49.92;27.30;;;;;;;;;;4976473;28;19974;-90
2023/02/20 19:00:22;;;;;;;;;;;;;;;;;;4976949;28;20026;-89
2023/02/20 19:02:49;;;;;;;;;;;;;;;;;;4975519;28;19949;-92
2023/02/20 19:05:14;;;;;;;;;;;;;;;;;;4975850;28;20312;-89
2023/02/20 19:07:41;;;;;;;;;;;;;;;;;;4975413;28;20125;-89
2023/02/20 19:10:06;;;;;;;;;;;;;;;;;;4975657;28;19914;-91
2023/02/20 19:12:31;;;;;;;;;;;;;;;;;;4975705;28;19921;-89
2023/02/20 19:14:57;;;;;;;;;;;;;;;;;;4975620;28;19953;-92
2023/02/20 19:17:22;;;;;;;;;;;;;;;;;;4975645;28;20280;-92
2023/02/20 19:19:47;;;;;;;;;;;;;;;;;;4975394;28;19914;-92
2023/02/20 19:22:13;;;;;;;;;;;;;;;;;;4975535;28;19936;-90
2023/02/20 19:24:38;;;;;;;;;;;;;;;;;;4976566;28;19914;-89
2023/02/20 19:27:03;;;;;;;;;;;;;;;;;;4976437;28;19918;-89
2023/02/20 19:29:29;;;;;;;;;;;;;;;;;;4976477;28;19977;-92
2023/02/20 19:31:54;;;;;;;;;;;;;;;;;;4975420;28;19924;-89
2023/02/20 19:34:19;;;;;;;;;;;;;;;;;;4975352;28;19914;-91
2023/02/20 19:36:45;;;;;;;;;;;;;;;;;;4977965;28;19918;-91
2023/02/20 19:39:11;;;;;;;;;;;;;;;;;;4975464;28;19913;-92
2023/02/20 19:41:38;;;;;;;;;;;;;;;;;;4974953;28;20415;-91
2023/02/20 19:44:04;;;;;;;;;;;;;;;;;;4975281;28;20276;-92
2023/02/20 19:46:29;;;;;;;;;;;;;;;;;;4975518;28;19918;-93
2023/02/20 19:48:54;;;;;;;;;;;;;;;;;;4975313;28;19918;-92
2023/02/20 19:51:20;;;;;;;;;;;;;;;;;;4975740;28;19997;-93
2023/02/20 19:53:45;;;;;;;;;;;;;;;;;;4976433;28;19920;-94
2023/02/20 19:56:11;;;;;;;;;;;;;;;;;;4975275;28;20270;-92
2023/02/20 19:58:38;;;;;;;;;;;;;;;;;;4974869;28;20314;-93
2023/02/20 20:01:14;;;;;;;;;;;;;;;;;;4975028;28;19921;-88
2023/02/20 20:03:41;;;;;;;;;;;;;;;;;;4975200;28;19918;-91
2023/02/20 20:06:08;;;;;;;;;;;;;;;;;;4977345;28;19913;-92
2023/02/20 20:08:33;;;;;;;;;;;;;;;;;;4979849;28;19921;-90
2023/02/20 20:10:59;;;;;;;;;;;;;;;;;;4977641;28;19918;-89
2023/02/20 20:13:25;;;;;;;;;;;;;;;;;;4976766;28;19937;-95
2023/02/20 20:15:50;;;;;;;;;;;;;;;;;;4975574;28;19932;-92
2023/02/20 20:18:15;;;;;;;;;;;;;;;;;;4975168;28;19914;-93
2023/02/20 20:20:41;;;;;;;;;;;;;;;;;;4976595;28;19910;-90
2023/02/20 20:23:06;;;;;;;;;;;;;;;;;;4977002;28;19918;-94
2023/02/20 20:25:32;;;;;;;;;;;;;;;;;;4974987;28;19914;-93
2023/02/20 20:28:00;;;;;;;;;;;;;;;;;;4975665;28;19914;-94
2023/02/20 20:30:27;;;;;;;;;;;;;;;;;;4979402;28;19958;-94
2023/02/20 20:32:53;;;;;;;;;;;;;;;;;;4976720;28;19953;-93
2023/02/20 20:35:19;;;;;;;;;;;;;;;;;;4974901;28;19914;-91
2023/02/20 20:37:45;;;;;;;;;;;;;;;;;;4974611;28;19918;-92
2023/02/20 20:40:13;;;;;;;;;;;;;;;;;;4974762;28;19920;-94
2023/02/20 20:42:39;;;;;;;;;;;;;;;;;;4976083;28;19916;-95
2023/02/20 20:45:04;;;;;;;;;;;;;;;;;;4975821;28;19968;-95
2023/02/20 20:47:29;;;;;;;;;;;;;;;;;;4975561;28;20384;-94
2023/02/20 20:49:55;;;;;;;;;;;;;;;;;;4976214;28;19925;-86
2023/02/20 20:52:25;;;;;;;;;;;;;;;;;;4976197;28;20380;-91
2023/02/20 20:54:55;;;;;;;;;;;;;;;;;;4966496;28;19914;-83
2023/02/20 20:57:21;;;;;;;;;;;;;;;;;;4977628;28;19921;-89
2023/02/20 20:59:47;;;;;;;;;;;;;;;;;;4977929;28;20353;-91
2023/02/20 21:02:13;;;;;;;;;;;;;;;;;;4973297;28;19919;-89
2023/02/20 21:04:39;;;;;;;;;;;;;;;;;;4958250;28;19920;-86
2023/02/20 21:07:04;;;;;;;;;;;;;;;;;;4959499;28;19918;-90
2023/02/20 21:09:29;;;;;;;;;;;;;;;;;;4958431;28;19917;-88
2023/02/20 21:11:54;;;;;;;;;;;;;;;;;;4973010;28;19918;-88
2023/02/20 21:14:20;;;;;;;;;;;;;;;;;;4977514;28;19956;-89
2023/02/20 21:16:45;;;;;;;;;;;;;;;;;;4978882;28;20440;-88
2023/02/20 21:19:10;;;;;;;;;;;;;;;;;;4979115;28;19960;-93
2023/02/20 21:21:36;;;;;;;;;;;;;;;;;;4978788;28;19910;-88
2023/02/20 21:24:01;;;;;;;;;;;;;;;;;;4978757;28;19918;-91
2023/02/20 21:26:26;;;;;;;;;;;;;;;;;;4978619;28;19914;-91
2023/02/20 21:28:52;;;;;;;;;;;;;;;;;;4966734;28;19914;-83
2023/02/20 21:31:19;;;;;;;;;;;;;;;;;;4959649;28;19918;-87
2023/02/20 21:33:47;;;;;;;;;;;;;;;;;;4959920;28;19914;-91
2023/02/20 21:36:14;;;;;;;;;;;;;;;;;;4959045;28;19928;-92
2023/02/20 21:38:39;;;;;;;;;;;;;;;;;;4958921;28;19914;-89
2023/02/20 21:41:04;;;;;;;;;;;;;;;;;;4959492;28;19962;-88
2023/02/20 21:46:13;;;;;;;;;;;;;;;;;;4958999;29;20022;-89
2023/02/20 21:48:39;;;;;;;;;;;;;;;;;;4958615;28;19973;-89
2023/02/20 21:51:04;;;;;;;;;;;;;;;;;;4958740;28;19925;-89
2023/02/20 21:53:29;;;;;;;;;;;;;;;;;;4958630;29;19914;-89
2023/02/20 21:55:55;;;;;;;;;;;;;;;;;;4968392;28;19918;-88
